Aérodrome :
LOGIN :

S'inscrire | Disclaimer

   EN    FR    IT 

 










Légende :    VFR   VFR Marginal   IFR   IFR Intensif   IFR Très Intensif
Visi : 
Plafond : 
>= 8 km
>= 3000ft
5 à 8 km
1000 à 3000 ft
1500m à 5 km
500 à 1000 ft
800 à 1500m
200 à 500 ft
< 800m
< 200 ft
Symboles :   Orages  Brouillard  Fortes neiges  Fortes précipitations  Vent > 20 kt
SIGMETs :   Divers  Orages  Givrage  Turbulence  Onde Orograph.  Cendres Volcan.







- Altitude de l'aérodrome : 112 ft
- Code IATA : SVQ


LEZL - Sevilla San Pablo

DERNIER METAR :
  • 280000Z AUTO 06005KT 5000 +RA SCT008/// BKN021/// BKN027/// 15/15 Q1009

METARs EXPIRÉS :
  • 272330Z AUTO 07004KT 4100 +RA BKN008/// OVC024/// 15/15 Q1010
  • 272300Z 08003KT 8000 RA FEW010 BKN025 16/15 Q1010 NOSIG
  • 272230Z 09003KT 070V130 9999 RA FEW020 BKN030 16/15 Q1010 NOSIG
  • 272200Z 07004KT 040V100 9999 -RADZ FEW030 16/15 Q1010 NOSIG
  • 272130Z VRB02KT 9999 -RA FEW040 16/15 Q1010 NOSIG

TAF TAF LEZL
Valide du 27 à 21h jusqu'au 28 à 21h UTC


272000Z 2721/2821 VRB04KT 9999 FEW020 SCT035 TX20/2814Z TN13/2806Z
TEMPO 2721/2815 4000 SHRA FEW025CB
BECMG 2800/2802 05010KT
BECMG 2812/2814 21010KT
Pas de NOTAMs connus pour ce terrain.



MET'MAP, la Météo Aéronautique d'un coup d'oeil ! - Copyright ORBIFLY Décembre 2007 - Disclaimer

ORBIFLY MET'MAP TEAM :

Programmation & Développement : Alexandra Zaïnal
Conception & Développement : Baudouin d'Aumeries
Co-Programmation & Développement : Marc-Olivier Méhu
Soutien technique & logistique : Manuel Goepfert

Contact : metmap@orbifly.com




SOURCES & CREDITS :

   NOAA